Marion, Iowa
Current Conditions -  °F | °C
As of 4:52 AM on Monday 20 Oct 2014 (Local Time) from KCID Reporting Station
Clear Clear  
Wind Chill: 42°   Ceiling: Unl
Heat Index: 46°   Visibility: 10mi
Dew Point: 43°   Wind: 8mph
Humidity: 89%   Direction: 310°NW
Pressure: 29.89"   Gusts: NA
Location:  42.03°N, 91.6°W
Report Text: KCID 200952Z AUTO 31007KT 10SM CLR 08/06 A2989 RMK AO2 SLP121 T00780061
Loading
Personal Weather Stations






























Interactive Weather Map
Tropical Storm Tracking
New forecast layout! Learn more

10-Day Weather Forecast

Advertisements
Track Severe Weather on mobile